createdAt,value
2019-03-19T00:01:01.052Z,37.40
2019-03-19T00:06:02.702Z,47.70
2019-03-19T00:11:04.418Z,50.20
2019-03-19T00:16:06.628Z,43.13
2019-03-19T00:21:08.340Z,28.33
2019-03-19T00:26:10.025Z,35.80
2019-03-19T00:31:11.725Z,59.07
2019-03-19T00:36:13.321Z,59.10
2019-03-19T00:41:15.239Z,45.53
2019-03-19T00:46:16.843Z,50.67
2019-03-19T00:51:18.483Z,75.80
2019-03-19T00:56:20.182Z,61.63
2019-03-19T01:01:21.834Z,63.10
2019-03-19T01:06:23.556Z,42.87
2019-03-19T01:11:25.249Z,47.57
2019-03-19T01:16:27.839Z,55.33
2019-03-19T01:21:31.819Z,53.73
2019-03-19T01:26:34.031Z,61.60
2019-03-19T01:31:35.828Z,61.97
2019-03-19T01:36:37.613Z,37.47
2019-03-19T01:41:39.511Z,43.10
2019-03-19T01:46:41.274Z,60.23
2019-03-19T01:51:42.987Z,48.20
2019-03-19T01:56:46.591Z,36.70
2019-03-19T02:01:48.809Z,63.90
2019-03-19T02:06:50.998Z,53.83
2019-03-19T02:11:52.892Z,50.63
2019-03-19T02:16:55.715Z,45.40
2019-03-19T02:21:57.489Z,55.70
2019-03-19T02:26:59.189Z,67.37
2019-03-19T02:32:02.844Z,51.70
2019-03-19T02:37:05.314Z,63.33
2019-03-19T02:42:07.207Z,60.00
2019-03-19T02:47:09.035Z,47.37
2019-03-19T02:52:10.762Z,45.00
2019-03-19T02:57:13.059Z,57.40
2019-03-19T03:02:15.568Z,55.27
2019-03-19T03:07:17.321Z,62.90
2019-03-19T03:12:19.090Z,53.10
2019-03-19T03:17:21.152Z,68.90
2019-03-19T03:22:22.914Z,57.53
2019-03-19T03:27:24.554Z,61.47
2019-03-19T03:32:26.354Z,72.23
2019-03-19T03:37:28.024Z,58.60
2019-03-19T03:42:29.674Z,61.67
2019-03-19T03:47:31.544Z,52.00
2019-03-19T03:52:33.305Z,50.67
2019-03-19T03:57:35.192Z,54.93
2019-03-19T04:02:37.532Z,60.10
2019-03-19T04:07:39.285Z,66.53
2019-03-19T04:12:41.039Z,35.50
2019-03-19T04:17:43.344Z,48.73
2019-03-19T04:22:45.510Z,75.10
2019-03-19T04:27:47.487Z,62.50
2019-03-19T04:32:49.287Z,58.97
2019-03-19T04:37:51.129Z,49.23
2019-03-19T04:42:52.938Z,56.73
2019-03-19T04:47:54.746Z,47.97
2019-03-19T04:52:56.741Z,45.43
2019-03-19T04:57:58.781Z,55.50
2019-03-19T05:03:00.603Z,58.87
2019-03-19T05:08:02.603Z,52.63
2019-03-19T05:13:04.542Z,63.57
2019-03-19T05:18:06.410Z,57.30
2019-03-19T05:23:08.529Z,62.03
2019-03-19T05:28:11.061Z,82.50
2019-03-19T05:33:12.851Z,65.83
2019-03-19T05:38:14.654Z,77.10
2019-03-19T05:43:16.422Z,68.10
2019-03-19T05:48:20.541Z,81.60
2019-03-19T05:53:22.726Z,81.67
2019-03-19T05:58:24.456Z,98.27
2019-03-19T06:03:26.600Z,73.90
2019-03-19T06:08:28.297Z,65.57
2019-03-19T06:13:30.027Z,61.87
2019-03-19T06:18:35.273Z,75.30
2019-03-19T06:23:36.115Z,82.67
2019-03-19T06:28:37.819Z,62.37
2019-03-19T06:33:39.619Z,57.83
2019-03-19T06:38:41.225Z,68.43
2019-03-19T06:43:42.920Z,69.33
2019-03-19T06:48:44.515Z,77.00
2019-03-19T06:53:46.533Z,73.13
2019-03-19T06:58:48.233Z,71.00
2019-03-19T07:03:49.935Z,60.90
2019-03-19T07:08:51.636Z,66.60
2019-03-19T07:13:53.338Z,57.73
2019-03-19T07:18:55.040Z,65.50
2019-03-19T07:23:57.265Z,34.27
2019-03-19T07:28:58.955Z,41.47
2019-03-19T07:34:00.657Z,62.83
2019-03-19T07:39:03.882Z,35.10
2019-03-19T07:44:05.562Z,43.00
2019-03-19T07:49:08.623Z,41.67
2019-03-19T07:54:11.139Z,39.20
2019-03-19T07:59:12.840Z,43.37
2019-03-19T08:04:15.138Z,34.40
2019-03-19T08:09:16.838Z,20.40
2019-03-19T08:14:18.550Z,33.70
2019-03-19T08:19:20.239Z,25.83
2019-03-19T08:24:22.283Z,35.70
2019-03-19T08:29:24.163Z,25.20
2019-03-19T08:34:25.965Z,30.00
2019-03-19T08:39:27.707Z,27.67
2019-03-19T08:44:29.729Z,32.53
2019-03-19T08:49:31.783Z,21.23
2019-03-19T08:54:36.556Z,17.07
2019-03-19T08:59:38.259Z,18.13
2019-03-19T09:04:39.959Z,28.10
2019-03-19T09:09:42.074Z,9.57
2019-03-19T09:14:43.700Z,19.83
2019-03-19T09:19:45.417Z,12.40
2019-03-19T09:24:47.560Z,21.90
2019-03-19T09:29:54.450Z,15.37
2019-03-19T09:34:57.426Z,18.57
2019-03-19T09:39:59.233Z,11.93
2019-03-19T09:45:00.968Z,20.37
2019-03-19T09:50:05.802Z,14.40
2019-03-19T09:55:10.037Z,17.70
2019-03-19T10:00:23.121Z,14.27
2019-03-19T10:05:24.859Z,16.13
2019-03-19T10:10:27.427Z,8.50
2019-03-19T10:15:40.629Z,16.70
2019-03-19T10:20:42.546Z,10.70
2019-03-19T10:25:44.146Z,18.93
2019-03-19T10:30:45.833Z,17.93
2019-03-19T10:35:47.538Z,21.50
2019-03-19T10:40:52.119Z,6.43
2019-03-19T10:45:54.284Z,12.33
2019-03-19T10:50:55.863Z,14.50
2019-03-19T11:01:05.814Z,12.43
2019-03-19T11:06:07.407Z,8.83
2019-03-19T11:11:13.340Z,11.63
2019-03-19T11:16:15.099Z,13.33
2019-03-19T11:21:21.179Z,7.57
2019-03-19T11:26:26.178Z,8.67
2019-03-19T11:31:27.953Z,6.37
2019-03-19T11:36:30.158Z,12.27
2019-03-19T11:41:31.896Z,5.80
2019-03-19T11:46:33.956Z,6.47
2019-03-19T11:51:35.687Z,15.13
2019-03-19T11:56:37.444Z,11.93
2019-03-19T12:01:39.551Z,9.57
2019-03-19T12:06:41.663Z,9.03
2019-03-19T12:11:43.386Z,11.00
2019-03-19T12:16:45.315Z,9.63
2019-03-19T12:21:47.441Z,10.77
2019-03-19T12:26:49.775Z,14.60
2019-03-19T12:31:51.593Z,15.17
2019-03-19T12:36:53.934Z,21.33
2019-03-19T12:41:56.079Z,18.20
2019-03-19T12:46:58.033Z,6.37
2019-03-19T12:51:59.754Z,5.13
2019-03-19T12:57:01.502Z,12.07
2019-03-19T13:02:03.748Z,14.47
2019-03-19T13:07:13.352Z,13.63
2019-03-19T13:12:15.597Z,4.40
2019-03-19T13:17:17.335Z,5.03
2019-03-19T13:22:22.064Z,8.87
2019-03-19T13:27:23.657Z,11.37
2019-03-19T13:32:25.445Z,3.83
2019-03-19T13:37:27.994Z,15.87
2019-03-19T13:42:29.595Z,10.87
2019-03-19T13:47:31.439Z,7.90
2019-03-19T13:52:35.131Z,16.17
2019-03-19T13:57:36.838Z,7.30
2019-03-19T14:02:39.041Z,10.60
2019-03-19T14:07:40.717Z,14.17
2019-03-19T14:12:42.333Z,16.47
2019-03-19T14:17:44.074Z,20.17
2019-03-19T14:22:46.158Z,11.77
2019-03-19T14:27:47.905Z,11.30
2019-03-19T14:32:49.697Z,14.00
2019-03-19T14:37:51.822Z,13.73
2019-03-19T14:42:53.604Z,23.20
2019-03-19T14:47:55.381Z,15.20
2019-03-19T14:52:57.328Z,10.87
2019-03-19T14:57:59.134Z,22.27
2019-03-19T15:03:01.144Z,17.80
2019-03-19T15:08:03.023Z,11.40
2019-03-19T15:13:04.781Z,17.73
2019-03-19T15:18:06.497Z,17.60
2019-03-19T15:23:08.857Z,35.67
2019-03-19T15:28:10.744Z,15.10
2019-03-19T15:33:12.584Z,10.97
2019-03-19T15:38:14.817Z,14.53
2019-03-19T15:43:17.566Z,7.97
2019-03-19T15:48:19.586Z,21.63
2019-03-19T15:53:21.214Z,19.10
2019-03-19T15:58:23.037Z,14.03
2019-03-19T16:03:25.134Z,14.57
2019-03-19T16:08:27.203Z,15.00
2019-03-19T16:13:29.422Z,8.80
2019-03-19T16:18:31.576Z,15.90
2019-03-19T16:23:33.448Z,14.37
2019-03-19T16:28:35.228Z,16.27
2019-03-19T16:33:37.002Z,14.00
2019-03-19T16:38:39.100Z,20.13
2019-03-19T16:43:40.801Z,10.93
2019-03-19T16:48:43.048Z,17.80
2019-03-19T16:53:44.829Z,19.60
2019-03-19T16:58:46.574Z,23.13
2019-03-19T17:03:48.645Z,19.70
2019-03-19T17:08:50.492Z,11.87
2019-03-19T17:13:52.228Z,25.73
2019-03-19T17:18:54.529Z,20.57
2019-03-19T17:23:56.954Z,19.70
2019-03-19T17:28:58.746Z,25.30
2019-03-19T17:34:00.439Z,11.33
2019-03-19T17:39:02.672Z,14.60
2019-03-19T17:44:04.400Z,14.40
2019-03-19T17:49:06.123Z,24.90
2019-03-19T17:54:08.495Z,11.10
2019-03-19T17:59:10.387Z,15.63
2019-03-19T18:04:12.154Z,14.73
2019-03-19T18:09:13.933Z,18.80
2019-03-19T18:14:15.812Z,20.37
2019-03-19T18:19:17.606Z,22.33
2019-03-19T18:24:19.799Z,13.03
2019-03-19T18:29:21.549Z,14.17
2019-03-19T18:34:23.381Z,12.00
2019-03-19T18:39:25.303Z,22.10
2019-03-19T18:44:27.005Z,8.37
2019-03-19T18:49:28.926Z,15.83
2019-03-19T18:54:30.837Z,15.40
2019-03-19T18:59:32.994Z,32.97
2019-03-19T19:04:34.918Z,19.20
2019-03-19T19:09:36.663Z,29.13
2019-03-19T19:14:38.461Z,14.90
2019-03-19T19:19:40.759Z,12.87
2019-03-19T19:24:42.936Z,18.57
2019-03-19T19:29:44.828Z,17.77
2019-03-19T19:34:48.595Z,17.70
2019-03-19T19:39:50.415Z,21.53
2019-03-19T19:44:52.393Z,15.20
2019-03-19T19:49:54.144Z,17.70
2019-03-19T19:54:56.440Z,12.00
2019-03-19T19:59:58.238Z,12.83
2019-03-19T20:05:03.436Z,16.93
2019-03-19T20:10:10.290Z,23.67
2019-03-19T20:15:12.269Z,15.60
2019-03-19T20:20:26.030Z,14.23
2019-03-19T20:25:28.211Z,22.10
2019-03-19T20:30:29.957Z,22.50
2019-03-19T20:35:31.731Z,23.47
2019-03-19T20:40:33.555Z,7.70
2019-03-19T20:45:35.298Z,14.57
2019-03-19T20:50:40.448Z,4.90
2019-03-19T20:55:42.363Z,6.03
2019-03-19T21:00:44.335Z,15.83
2019-03-19T21:05:46.416Z,8.50
2019-03-19T21:10:48.742Z,18.73
2019-03-19T21:15:50.601Z,16.75
2019-03-19T21:20:52.709Z,7.90
2019-03-19T21:25:54.477Z,26.10
2019-03-19T21:30:56.331Z,5.43
2019-03-19T21:35:58.057Z,16.87
2019-03-19T21:40:59.993Z,16.93
2019-03-19T21:46:01.778Z,10.00
2019-03-19T21:51:03.587Z,11.67
2019-03-19T21:56:05.587Z,13.33
2019-03-19T22:01:07.390Z,16.53
2019-03-19T22:06:09.186Z,15.33
2019-03-19T22:11:10.969Z,9.83
2019-03-19T22:16:12.762Z,5.80
2019-03-19T22:21:14.693Z,17.03
2019-03-19T22:26:16.467Z,10.85
2019-03-19T22:31:18.238Z,35.00
2019-03-19T22:36:19.984Z,5.83
2019-03-19T22:41:21.951Z,12.93
2019-03-19T22:46:25.057Z,7.10
2019-03-19T22:51:26.857Z,10.63
2019-03-19T22:56:28.651Z,12.70
2019-03-19T23:01:30.463Z,4.37
2019-03-19T23:06:32.251Z,3.60
2019-03-19T23:11:34.410Z,15.00
2019-03-19T23:16:36.677Z,8.57
2019-03-19T23:21:38.877Z,5.13
2019-03-19T23:26:41.172Z,6.57
2019-03-19T23:31:42.914Z,10.23
2019-03-19T23:36:44.736Z,16.43
2019-03-19T23:41:46.530Z,7.33
2019-03-19T23:46:48.315Z,10.23
2019-03-19T23:51:50.032Z,15.60
2019-03-19T23:56:51.797Z,9.23
